Time;durP1;ratioP1;P1;durP2;ratioP2;P2;SDS_P1;SDS_P2;PMS_P1;PMS_P2;Temp;Humidity;BMP_temperature;BMP_pressure;BME280_temperature;BME280_humidity;BME280_pressure;Samples;Min_cycle;Max_cycle;Signal;HPM_P1;HPM_P2
2021/08/27 00:00:21;;;;;;;3.67;3.30;;;22.70;52.50;;;;;;5021812;28;20220;-47
2021/08/27 00:02:47;;;;;;;5.90;3.77;;;22.60;52.40;;;;;;5029618;28;20201;-46
2021/08/27 00:05:12;;;;;;;7.73;3.53;;;22.60;53.00;;;;;;5012767;28;20189;-46
2021/08/27 00:07:38;;;;;;;4.10;3.10;;;22.50;52.60;;;;;;5011262;28;20217;-45
2021/08/27 00:10:04;;;;;;;6.20;3.63;;;22.40;53.10;;;;;;5018403;28;20208;-49
2021/08/27 00:12:30;;;;;;;4.00;2.87;;;22.40;53.50;;;;;;5013402;28;20673;-47
2021/08/27 00:14:56;;;;;;;3.50;3.20;;;22.40;53.70;;;;;;5020428;28;20479;-46
2021/08/27 00:17:29;;;;;;;4.73;3.50;;;22.50;53.50;;;;;;5024911;28;20192;-46
2021/08/27 00:19:56;;;;;;;3.90;3.50;;;22.50;53.40;;;;;;5016129;28;20229;-48
2021/08/27 00:22:21;;;;;;;3.73;3.30;;;22.50;53.40;;;;;;5021664;28;20451;-46
2021/08/27 00:24:47;;;;;;;3.80;3.40;;;22.50;53.50;;;;;;5018702;28;20796;-45
2021/08/27 00:27:12;;;;;;;3.90;3.00;;;22.50;53.30;;;;;;5015474;28;20186;-46
2021/08/27 00:29:38;;;;;;;5.77;3.50;;;22.50;53.80;;;;;;5025143;28;20236;-45
2021/08/27 00:32:04;;;;;;;5.03;3.90;;;22.50;53.90;;;;;;5022281;28;20189;-46
2021/08/27 00:34:29;;;;;;;3.30;2.80;;;22.50;53.80;;;;;;5028951;28;20197;-49
2021/08/27 00:36:55;;;;;;;4.33;3.30;;;22.60;53.70;;;;;;5027268;28;20292;-48
2021/08/27 00:39:20;;;;;;;3.27;2.80;;;22.60;53.80;;;;;;5007643;28;20232;-48
2021/08/27 00:41:46;;;;;;;3.93;3.30;;;22.50;53.90;;;;;;5013024;28;20205;-49
2021/08/27 00:44:11;;;;;;;5.97;3.60;;;22.50;53.90;;;;;;5021340;28;20208;-47
2021/08/27 00:46:37;;;;;;;3.33;3.10;;;22.60;53.60;;;;;;5011258;28;20202;-49
2021/08/27 00:49:03;;;;;;;3.07;2.80;;;22.60;52.90;;;;;;5017634;28;20193;-50
2021/08/27 00:51:28;;;;;;;3.50;3.20;;;22.60;53.10;;;;;;5022078;28;20209;-48
2021/08/27 00:53:54;;;;;;;3.17;2.87;;;22.60;53.00;;;;;;5021505;28;20268;-47
2021/08/27 00:56:20;;;;;;;4.13;3.57;;;22.60;53.20;;;;;;5009859;28;20186;-48
2021/08/27 00:58:45;;;;;;;6.00;2.80;;;22.50;53.30;;;;;;5022704;28;20657;-48
2021/08/27 01:01:11;;;;;;;7.13;3.17;;;22.40;54.10;;;;;;5020957;28;20272;-46
2021/08/27 01:03:37;;;;;;;3.77;2.97;;;22.40;54.60;;;;;;5022675;28;20201;-48
2021/08/27 01:06:21;;;;;;;5.70;2.60;;;22.50;54.30;;;;;;5022408;28;20196;-46
2021/08/27 01:09:36;;;;;;;4.03;2.80;;;22.50;54.10;;;;;;5022629;28;20200;-49
2021/08/27 01:12:09;;;;;;;3.70;3.10;;;22.60;54.30;;;;;;5015407;28;20463;-47
2021/08/27 01:14:46;;;;;;;4.60;2.90;;;22.60;54.10;;;;;;5018239;28;20448;-45
2021/08/27 01:17:19;;;;;;;3.20;2.90;;;22.60;54.10;;;;;;5014947;28;20817;-47
2021/08/27 01:20:07;;;;;;;5.10;3.17;;;22.50;53.90;;;;;;5023944;28;20592;-46
2021/08/27 01:22:42;;;;;;;2.87;2.40;;;22.50;54.00;;;;;;5019156;28;20448;-46
2021/08/27 01:25:09;;;;;;;5.07;3.00;;;22.60;54.00;;;;;;5021250;28;20443;-48
2021/08/27 01:27:37;;;;;;;5.20;3.20;;;22.60;54.00;;;;;;5017559;28;20448;-46
2021/08/27 01:30:08;;;;;;;3.87;3.00;;;22.60;53.90;;;;;;5027479;28;20447;-46
2021/08/27 01:33:09;;;;;;;5.00;3.43;;;22.70;53.90;;;;;;5025728;28;20855;-48
2021/08/27 01:35:36;;;;;;;2.80;2.40;;;22.70;53.90;;;;;;5031470;28;20437;-46
2021/08/27 01:38:06;;;;;;;3.10;2.80;;;22.70;53.80;;;;;;5013631;28;20542;-46
2021/08/27 01:40:33;;;;;;;3.03;2.80;;;22.70;54.10;;;;;;5012277;28;20495;-50
2021/08/27 01:43:02;;;;;;;3.13;2.83;;;22.80;54.20;;;;;;5018019;28;20963;-46
2021/08/27 01:45:29;;;;;;;3.40;3.10;;;22.80;53.90;;;;;;5014408;28;20824;-45
2021/08/27 01:47:55;;;;;;;4.73;2.83;;;22.80;53.70;;;;;;5018843;28;20478;-47
2021/08/27 01:50:21;;;;;;;4.93;3.07;;;22.80;53.70;;;;;;5026594;28;20440;-48
2021/08/27 01:52:49;;;;;;;8.20;3.57;;;22.90;53.70;;;;;;5019645;28;20283;-45
2021/08/27 01:55:14;;;;;;;3.23;2.97;;;22.80;53.20;;;;;;5015964;28;20479;-46
2021/08/27 01:57:42;;;;;;;5.13;3.03;;;22.80;53.40;;;;;;5010265;28;20464;-45
2021/08/27 02:00:09;;;;;;;3.90;2.83;;;22.70;53.80;;;;;;5013046;28;20308;-45
2021/08/27 02:02:35;;;;;;;5.90;3.57;;;22.70;53.70;;;;;;5019803;28;20778;-47
2021/08/27 02:05:04;;;;;;;3.13;2.90;;;22.80;53.70;;;;;;5015679;28;20440;-45
2021/08/27 02:07:29;;;;;;;5.40;2.87;;;22.80;53.60;;;;;;5016893;28;20443;-44
2021/08/27 02:09:57;;;;;;;4.50;2.83;;;22.80;53.70;;;;;;5027159;28;20811;-46
2021/08/27 02:12:24;;;;;;;3.00;2.67;;;22.60;54.00;;;;;;5013869;28;20217;-45
2021/08/27 02:14:53;;;;;;;3.70;3.30;;;22.70;54.00;;;;;;5022111;28;20450;-45
2021/08/27 02:17:19;;;;;;;3.40;3.10;;;22.70;54.00;;;;;;5014750;28;20471;-46
2021/08/27 02:19:45;;;;;;;3.37;2.57;;;22.80;54.00;;;;;;5027535;28;20523;-45
2021/08/27 02:22:13;;;;;;;5.40;3.83;;;22.80;53.90;;;;;;5031763;28;20806;-45
2021/08/27 02:25:17;;;;;;;3.20;2.90;;;22.80;54.00;;;;;;5012422;28;20463;-45
2021/08/27 02:27:46;;;;;;;3.20;2.90;;;22.80;54.10;;;;;;5028628;28;20538;-45
2021/08/27 02:30:13;;;;;;;4.30;2.80;;;22.70;54.20;;;;;;5011190;28;20444;-47
2021/08/27 02:32:41;;;;;;;4.30;3.20;;;22.80;54.30;;;;;;5016437;28;20437;-45
2021/08/27 02:35:09;;;;;;;3.70;3.07;;;22.70;54.30;;;;;;5021087;28;20444;-45
2021/08/27 02:37:37;;;;;;;3.00;2.73;;;22.80;54.50;;;;;;5014128;28;20452;-46
2021/08/27 02:40:04;;;;;;;3.90;3.00;;;22.70;54.60;;;;;;5008524;28;20500;-45
2021/08/27 02:42:32;;;;;;;4.77;3.27;;;22.70;54.60;;;;;;5022832;28;20513;-45
2021/08/27 02:44:59;;;;;;;3.67;3.17;;;22.70;54.50;;;;;;5014127;28;20535;-45
2021/08/27 02:47:25;;;;;;;3.40;3.10;;;22.80;54.50;;;;;;5017453;28;20471;-45
2021/08/27 02:49:52;;;;;;;3.60;3.30;;;22.80;54.60;;;;;;5025428;28;21022;-46
2021/08/27 02:52:29;;;;;;;3.93;2.73;;;22.80;54.80;;;;;;5023405;28;20193;-46
2021/08/27 02:55:06;;;;;;;3.60;3.17;;;22.70;54.80;;;;;;5020543;28;20444;-45
2021/08/27 02:57:39;;;;;;;6.43;3.10;;;22.70;54.60;;;;;;5021152;28;20448;-45
2021/08/27 03:00:06;;;;;;;7.47;3.30;;;22.70;54.70;;;;;;5016504;28;20480;-45
2021/08/27 03:02:32;;;;;;;6.33;2.60;;;22.70;54.70;;;;;;5016800;28;20456;-45
2021/08/27 03:05:08;;;;;;;6.23;3.60;;;22.70;54.60;;;;;;5025096;28;20441;-45
2021/08/27 03:07:37;;;;;;;3.17;2.97;;;22.80;54.50;;;;;;5025093;28;20538;-45
2021/08/27 03:10:12;;;;;;;2.73;2.53;;;22.70;54.60;;;;;;5017689;28;20925;-44
2021/08/27 03:12:52;;;;;;;5.03;3.27;;;22.60;54.90;;;;;;5019841;28;20456;-46
2021/08/27 03:15:46;;;;;;;3.80;2.80;;;22.60;55.10;;;;;;5021392;28;20452;-46
2021/08/27 03:18:25;;;;;;;7.70;3.17;;;22.60;55.00;;;;;;5021341;28;20528;-45
2021/08/27 03:20:59;;;;;;;3.33;2.90;;;22.60;55.00;;;;;;5021429;28;20998;-45
2021/08/27 03:23:29;;;;;;;3.10;2.90;;;22.70;54.70;;;;;;5018550;28;20542;-46
2021/08/27 03:25:57;;;;;;;3.53;3.10;;;22.70;54.80;;;;;;5029233;28;20444;-49
2021/08/27 03:28:27;;;;;;;4.10;3.33;;;22.70;54.80;;;;;;5027485;28;20440;-50
2021/08/27 03:30:54;;;;;;;4.50;3.00;;;22.70;54.80;;;;;;5022464;28;20514;-49
2021/08/27 03:33:22;;;;;;;3.90;3.23;;;22.70;54.70;;;;;;5013864;28;20443;-45
2021/08/27 03:35:50;;;;;;;3.73;3.43;;;22.70;54.70;;;;;;5027176;28;20432;-48
2021/08/27 03:38:16;;;;;;;3.30;3.00;;;22.70;54.80;;;;;;5021807;28;20436;-46
2021/08/27 03:40:45;;;;;;;4.23;3.27;;;22.70;54.90;;;;;;5021400;28;20488;-48
2021/08/27 03:43:11;;;;;;;3.60;3.30;;;22.70;55.00;;;;;;5023743;28;20445;-49
2021/08/27 03:45:38;;;;;;;3.53;3.17;;;22.70;55.10;;;;;;5023233;28;20444;-45
2021/08/27 03:48:04;;;;;;;5.13;3.70;;;22.70;54.90;;;;;;5024540;28;20448;-45
2021/08/27 03:50:30;;;;;;;7.10;3.77;;;22.70;55.10;;;;;;5025418;28;20480;-50
2021/08/27 03:52:56;;;;;;;3.70;2.97;;;22.70;54.90;;;;;;5020385;28;20475;-49
2021/08/27 03:55:22;;;;;;;4.90;3.57;;;22.70;54.60;;;;;;5031987;28;20537;-49
2021/08/27 03:57:50;;;;;;;6.50;3.80;;;22.70;54.90;;;;;;5013054;28;20441;-47
2021/08/27 04:00:19;;;;;;;4.30;3.67;;;22.60;54.20;;;;;;5017378;28;20495;-50
2021/08/27 04:02:47;;;;;;;4.63;4.23;;;22.50;54.20;;;;;;5025274;28;20956;-50
2021/08/27 04:05:22;;;;;;;4.53;4.10;;;22.20;54.50;;;;;;5026858;28;22365;-50
2021/08/27 04:07:49;;;;;;;4.40;3.70;;;22.00;55.00;;;;;;5019196;28;20447;-49
2021/08/27 04:10:18;;;;;;;4.10;3.70;;;21.80;55.50;;;;;;5025521;28;20454;-49
2021/08/27 04:12:43;;;;;;;5.63;4.20;;;21.70;56.00;;;;;;5021529;28;22372;-50
2021/08/27 04:15:12;;;;;;;5.53;3.90;;;21.60;56.50;;;;;;5023284;28;20499;-50
2021/08/27 04:17:39;;;;;;;4.23;3.83;;;21.40;56.90;;;;;;5017990;28;20242;-49
2021/08/27 04:20:06;;;;;;;6.83;3.60;;;21.20;57.30;;;;;;5030967;28;20578;-49
2021/08/27 04:22:32;;;;;;;5.27;4.13;;;21.10;57.60;;;;;;5025686;28;20444;-49
2021/08/27 04:24:58;;;;;;;7.07;4.30;;;21.00;57.90;;;;;;5014810;28;20799;-49
2021/08/27 04:27:24;;;;;;;6.67;4.90;;;20.90;58.50;;;;;;5022339;28;20435;-49
2021/08/27 04:29:50;;;;;;;6.50;4.70;;;20.80;58.70;;;;;;5027069;28;20194;-49
2021/08/27 04:32:16;;;;;;;6.00;4.43;;;20.70;58.90;;;;;;5019793;28;20200;-46
2021/08/27 04:34:42;;;;;;;4.40;4.00;;;20.70;59.10;;;;;;5019376;28;20437;-48
2021/08/27 04:37:07;;;;;;;6.83;4.50;;;20.60;59.10;;;;;;5015447;28;21856;-49
2021/08/27 04:39:33;;;;;;;7.23;5.00;;;20.50;59.30;;;;;;5010765;28;20243;-49
2021/08/27 04:42:00;;;;;;;6.87;4.77;;;20.50;59.60;;;;;;5014099;28;20193;-50
2021/08/27 04:44:26;;;;;;;5.80;5.00;;;20.40;59.90;;;;;;5020898;28;20562;-50
2021/08/27 04:46:51;;;;;;;6.13;5.53;;;20.30;59.90;;;;;;5017970;28;20445;-50
2021/08/27 04:49:17;;;;;;;8.03;5.63;;;20.20;60.50;;;;;;5014234;28;20201;-50
2021/08/27 04:51:42;;;;;;;6.63;5.20;;;20.30;60.40;;;;;;5019412;28;20269;-49
2021/08/27 04:54:08;;;;;;;5.90;5.33;;;20.20;60.40;;;;;;5017641;28;20699;-50
2021/08/27 04:56:33;;;;;;;7.53;5.20;;;20.20;60.50;;;;;;5018756;28;20584;-50
2021/08/27 04:58:59;;;;;;;9.23;5.93;;;20.20;60.60;;;;;;5022129;28;20283;-50
2021/08/27 05:01:24;;;;;;;8.87;5.93;;;20.30;60.90;;;;;;5007458;28;20288;-46
2021/08/27 05:03:50;;;;;;;11.03;6.60;;;20.10;61.30;;;;;;5021358;28;20193;-51
2021/08/27 05:06:16;;;;;;;7.33;6.60;;;20.10;61.50;;;;;;5013985;28;20294;-47
2021/08/27 05:08:41;;;;;;;8.80;5.70;;;20.00;61.60;;;;;;5027237;28;20194;-49
2021/08/27 05:11:07;;;;;;;7.33;6.70;;;20.00;61.60;;;;;;5020934;28;20190;-50
2021/08/27 05:13:32;;;;;;;9.00;6.07;;;20.00;61.70;;;;;;5022616;28;20244;-49
2021/08/27 05:15:58;;;;;;;10.20;3.90;;;20.00;61.70;;;;;;5009495;28;20201;-48
2021/08/27 05:18:24;;;;;;;6.53;5.03;;;20.00;64.40;;;;;;5019832;28;20225;-50
2021/08/27 05:20:49;;;;;;;5.33;4.43;;;20.40;63.10;;;;;;5017089;28;20253;-50
2021/08/27 05:23:15;;;;;;;6.47;5.17;;;20.60;61.50;;;;;;5015783;28;20259;-48
2021/08/27 05:25:40;;;;;;;6.63;4.53;;;20.90;60.20;;;;;;5015068;28;20201;-48
2021/08/27 05:28:06;;;;;;;4.97;4.47;;;21.00;59.40;;;;;;5015630;28;20197;-49
2021/08/27 05:30:32;;;;;;;5.50;4.80;;;21.10;58.90;;;;;;5010639;28;20209;-49
2021/08/27 05:32:57;;;;;;;4.03;3.73;;;21.30;58.50;;;;;;5009592;28;20212;-49
2021/08/27 05:35:23;;;;;;;7.20;4.67;;;21.40;58.10;;;;;;5010304;28;20239;-48
2021/08/27 05:37:49;;;;;;;5.43;4.93;;;21.50;57.80;;;;;;5016841;28;20190;-47
2021/08/27 05:40:15;;;;;;;6.77;4.27;;;21.40;57.60;;;;;;5013522;28;20543;-48
2021/08/27 05:42:41;;;;;;;7.17;3.70;;;21.40;57.80;;;;;;5013638;28;20202;-50
2021/08/27 05:45:08;;;;;;;5.27;4.23;;;21.40;57.60;;;;;;5011802;28;20445;-49
2021/08/27 05:47:34;;;;;;;5.00;4.50;;;21.40;57.60;;;;;;5017552;28;20444;-48
2021/08/27 05:50:00;;;;;;;4.80;4.40;;;21.40;57.50;;;;;;5012150;28;20444;-50
2021/08/27 05:52:27;;;;;;;5.00;4.37;;;21.40;57.50;;;;;;5011866;28;20432;-54
2021/08/27 05:54:52;;;;;;;5.90;4.50;;;21.20;57.90;;;;;;5023595;28;20538;-51
2021/08/27 05:57:18;;;;;;;10.47;5.53;;;21.20;58.00;;;;;;5017464;28;20471;-51
2021/08/27 05:59:44;;;;;;;6.63;4.90;;;21.20;58.10;;;;;;5025299;28;20243;-48
2021/08/27 06:02:10;;;;;;;9.40;5.30;;;21.10;58.00;;;;;;5014377;28;20456;-49
2021/08/27 06:04:35;;;;;;;6.57;5.60;;;21.10;58.20;;;;;;5021312;28;20269;-48
2021/08/27 06:07:01;;;;;;;7.27;5.63;;;21.10;58.60;;;;;;5010118;28;20206;-50
2021/08/27 06:09:27;;;;;;;8.23;5.53;;;21.00;58.70;;;;;;5010298;28;20220;-48
2021/08/27 06:11:52;;;;;;;7.23;5.50;;;20.80;58.90;;;;;;5021400;28;20197;-50
2021/08/27 06:14:18;;;;;;;8.17;6.60;;;20.70;59.10;;;;;;5018803;28;20193;-50
2021/08/27 06:16:44;;;;;;;6.00;5.50;;;20.70;59.30;;;;;;5020220;28;20204;-49
2021/08/27 06:19:10;;;;;;;6.60;5.33;;;20.60;59.40;;;;;;5024347;28;20245;-49
2021/08/27 06:21:37;;;;;;;8.23;6.07;;;20.60;59.80;;;;;;5021954;28;20193;-49
2021/08/27 06:24:04;;;;;;;7.27;5.80;;;20.60;59.90;;;;;;5025693;28;20208;-49
2021/08/27 06:26:30;;;;;;;6.70;6.10;;;20.60;59.80;;;;;;5029131;28;20444;-48
2021/08/27 06:28:58;;;;;;;7.03;6.13;;;20.70;59.60;;;;;;5026900;28;20797;-49
2021/08/27 06:31:25;;;;;;;6.27;5.67;;;20.70;59.30;;;;;;5017501;28;20532;-47
2021/08/27 06:33:50;;;;;;;5.90;5.30;;;20.70;59.50;;;;;;5024570;28;20924;-50
2021/08/27 06:36:16;;;;;;;7.20;5.53;;;20.70;59.50;;;;;;5029338;28;20550;-51
2021/08/27 06:38:42;;;;;;;5.67;5.17;;;20.60;59.10;;;;;;5022901;28;20239;-51
2021/08/27 06:41:08;;;;;;;5.87;5.10;;;20.60;59.00;;;;;;5030360;28;20431;-50
2021/08/27 06:43:37;;;;;;;6.60;5.20;;;20.80;58.80;;;;;;5028291;28;20743;-48
2021/08/27 06:46:11;;;;;;;7.67;5.83;;;20.90;58.30;;;;;;5028484;28;20436;-49
2021/08/27 06:48:36;;;;;;;5.27;4.77;;;21.00;58.30;;;;;;5023375;28;20453;-48
2021/08/27 06:51:02;;;;;;;6.40;4.90;;;20.80;58.30;;;;;;5020641;28;20436;-50
2021/08/27 06:53:28;;;;;;;4.93;4.43;;;20.90;58.10;;;;;;5025711;28;20224;-49
2021/08/27 06:55:54;;;;;;;5.13;4.63;;;20.80;57.40;;;;;;5022103;28;20549;-50
2021/08/27 06:58:19;;;;;;;6.87;4.30;;;20.80;58.00;;;;;;5016006;28;20196;-49
2021/08/27 07:00:45;;;;;;;4.73;3.90;;;20.90;57.70;;;;;;5020284;28;20232;-49
2021/08/27 07:03:11;;;;;;;4.40;4.10;;;21.10;57.70;;;;;;5029644;28;20190;-51
2021/08/27 07:05:36;;;;;;;4.70;4.20;;;21.30;57.60;;;;;;5029831;28;20201;-49
2021/08/27 07:08:03;;;;;;;4.83;4.33;;;21.60;57.20;;;;;;5027374;28;20736;-50
2021/08/27 07:10:29;;;;;;;8.60;4.00;;;21.80;56.60;;;;;;5026773;28;20268;-50
2021/08/27 07:12:55;;;;;;;4.10;3.67;;;22.00;56.00;;;;;;5030631;28;20442;-51
2021/08/27 07:15:22;;;;;;;5.33;4.23;;;22.20;56.50;;;;;;5023303;28;20438;-49
2021/08/27 07:17:48;;;;;;;4.77;4.37;;;22.40;56.20;;;;;;5029033;28;20475;-49
2021/08/27 07:20:14;;;;;;;4.80;3.87;;;22.60;55.70;;;;;;5021817;28;20904;-49
2021/08/27 07:22:41;;;;;;;5.07;3.73;;;22.50;54.20;;;;;;5021496;28;20436;-49
2021/08/27 07:25:07;;;;;;;5.90;4.07;;;22.50;54.20;;;;;;5027960;28;20527;-50
2021/08/27 07:27:33;;;;;;;3.90;3.60;;;22.30;53.40;;;;;;5026499;28;20443;-50
2021/08/27 07:29:59;;;;;;;4.90;4.33;;;22.20;53.20;;;;;;5024422;28;20456;-47
2021/08/27 07:32:24;;;;;;;3.60;3.30;;;22.20;53.70;;;;;;5020494;28;20201;-48
2021/08/27 07:34:50;;;;;;;5.10;3.63;;;22.20;53.60;;;;;;5020918;28;20637;-46
2021/08/27 07:37:16;;;;;;;6.23;3.30;;;22.20;53.40;;;;;;5025307;28;20190;-47
2021/08/27 07:39:42;;;;;;;3.97;3.20;;;22.10;53.00;;;;;;5024951;28;20225;-47
2021/08/27 07:42:08;;;;;;;5.60;2.73;;;22.10;52.90;;;;;;5019415;28;21283;-47
2021/08/27 07:44:34;;;;;;;2.60;2.40;;;21.90;53.80;;;;;;5026982;28;20194;-47
2021/08/27 07:47:00;;;;;;;3.10;2.87;;;21.90;55.60;;;;;;5015168;28;20467;-50
2021/08/27 07:49:26;;;;;;;3.40;2.70;;;22.10;54.80;;;;;;5025797;28;20439;-46
2021/08/27 07:51:53;;;;;;;5.83;2.87;;;22.30;53.80;;;;;;5022769;28;20602;-49
2021/08/27 07:54:19;;;;;;;3.00;2.73;;;22.60;53.40;;;;;;5020865;28;20185;-49
2021/08/27 07:56:45;;;;;;;2.93;2.27;;;22.90;52.60;;;;;;5023822;28;20436;-48
2021/08/27 07:59:11;;;;;;;5.50;2.40;;;23.10;51.50;;;;;;5017569;28;20483;-50
2021/08/27 08:01:36;;;;;;;2.03;1.93;;;23.40;50.50;;;;;;5026641;28;20272;-49
2021/08/27 08:04:02;;;;;;;3.87;2.17;;;23.60;50.00;;;;;;5017000;28;20201;-47
2021/08/27 08:06:29;;;;;;;4.50;2.20;;;23.80;49.60;;;;;;5022581;28;20211;-50
2021/08/27 08:08:54;;;;;;;2.43;1.80;;;24.00;49.70;;;;;;5019005;28;20483;-49
2021/08/27 08:11:20;;;;;;;5.10;3.10;;;24.00;48.80;;;;;;5024785;28;20431;-48
2021/08/27 08:13:46;;;;;;;2.80;2.47;;;24.20;48.90;;;;;;5023557;28;20642;-48
2021/08/27 08:16:12;;;;;;;3.87;2.70;;;24.30;48.60;;;;;;5022456;28;20280;-47
2021/08/27 08:18:38;;;;;;;2.50;1.93;;;24.30;48.40;;;;;;5021710;28;20251;-47
2021/08/27 08:21:05;;;;;;;2.10;1.73;;;24.20;47.80;;;;;;5026522;28;20479;-46
2021/08/27 08:23:31;;;;;;;2.07;1.87;;;24.10;47.50;;;;;;5023495;28;20197;-47
2021/08/27 08:25:57;;;;;;;3.10;1.80;;;24.10;47.60;;;;;;5024225;28;20441;-46
2021/08/27 08:28:22;;;;;;;3.33;2.27;;;24.10;48.10;;;;;;5029993;28;20549;-45
2021/08/27 08:30:52;;;;;;;3.80;2.40;;;24.20;48.90;;;;;;5023795;28;20428;-46
2021/08/27 08:33:18;;;;;;;5.37;2.30;;;24.30;47.50;;;;;;5022895;28;20627;-48
2021/08/27 08:35:44;;;;;;;2.20;2.00;;;24.40;48.30;;;;;;5025534;28;20444;-46
2021/08/27 08:38:10;;;;;;;6.03;1.90;;;24.50;46.60;;;;;;5024978;28;20963;-46
2021/08/27 08:40:43;;;;;;;2.47;1.80;;;24.50;45.30;;;;;;5015570;28;20351;-46
2021/08/27 08:43:10;;;;;;;2.10;1.50;;;24.60;45.00;;;;;;5017161;28;20232;-50
2021/08/27 08:45:40;;;;;;;2.10;1.50;;;24.80;45.60;;;;;;5022948;28;20490;-47
2021/08/27 08:48:07;;;;;;;3.17;1.53;;;24.90;45.60;;;;;;5022474;28;20474;-47
2021/08/27 08:50:34;;;;;;;2.97;1.90;;;25.00;45.60;;;;;;5028205;28;20943;-50
2021/08/27 08:53:01;;;;;;;3.80;1.70;;;25.00;45.30;;;;;;5016310;28;20524;-46
2021/08/27 08:55:27;;;;;;;2.47;1.80;;;24.60;45.00;;;;;;5025680;28;20467;-47
2021/08/27 08:57:52;;;;;;;4.87;1.67;;;24.50;45.40;;;;;;5020875;28;20795;-49
2021/08/27 09:00:18;;;;;;;3.53;1.67;;;24.30;45.50;;;;;;5028530;28;20224;-51
2021/08/27 09:02:43;;;;;;;2.60;1.43;;;24.20;45.10;;;;;;5024859;28;20242;-49
2021/08/27 09:05:09;;;;;;;1.57;1.47;;;24.20;45.10;;;;;;5019443;28;20205;-49
2021/08/27 09:07:35;;;;;;;2.97;1.70;;;24.30;45.00;;;;;;5023292;28;20205;-49
2021/08/27 09:10:02;;;;;;;1.47;1.20;;;24.10;45.40;;;;;;5024517;28;20194;-50
2021/08/27 09:12:29;;;;;;;4.87;2.00;;;23.80;46.40;;;;;;5026805;28;20223;-47
2021/08/27 09:15:10;;;;;;;4.23;2.80;;;23.50;46.90;;;;;;5022769;28;20433;-48
2021/08/27 09:17:37;;;;;;;3.13;1.93;;;23.40;47.30;;;;;;5019598;28;20467;-47
2021/08/27 09:20:05;;;;;;;3.90;2.67;;;23.10;48.10;;;;;;5026612;28;20843;-48
2021/08/27 09:22:49;;;;;;;5.23;2.00;;;23.20;48.20;;;;;;5025209;28;20433;-47
2021/08/27 09:25:17;;;;;;;4.60;1.97;;;23.30;48.20;;;;;;5018397;28;20456;-47
2021/08/27 09:28:18;;;;;;;4.97;1.60;;;23.40;48.00;;;;;;5021921;28;20829;-47
2021/08/27 09:30:57;;;;;;;2.63;1.63;;;23.50;47.40;;;;;;4971998;28;20496;-49
2021/08/27 09:33:24;;;;;;;5.40;1.90;;;23.50;47.90;;;;;;5018991;28;20449;-44
2021/08/27 09:35:55;;;;;;;3.83;1.70;;;23.60;47.40;;;;;;5033566;28;20440;-48
2021/08/27 09:38:30;;;;;;;2.00;1.67;;;23.50;46.80;;;;;;5023437;28;20940;-46
2021/08/27 09:41:09;;;;;;;2.50;1.80;;;23.50;46.60;;;;;;5016541;28;20494;-50
2021/08/27 09:43:45;;;;;;;2.17;1.50;;;23.30;46.40;;;;;;5021729;28;20796;-49
2021/08/27 09:46:34;;;;;;;2.13;1.50;;;23.30;47.60;;;;;;5022941;28;20447;-47
2021/08/27 09:49:01;;;;;;;2.63;1.43;;;23.50;48.10;;;;;;5020552;28;20451;-49
2021/08/27 09:51:47;;;;;;;2.10;1.70;;;23.70;48.50;;;;;;5023631;28;20471;-47
2021/08/27 09:54:38;;;;;;;2.03;1.83;;;24.00;48.10;;;;;;5027777;28;20467;-46
2021/08/27 09:57:06;;;;;;;3.73;2.50;;;24.20;46.50;;;;;;5021385;28;20506;-47
2021/08/27 09:59:38;;;;;;;3.17;1.50;;;24.30;45.30;;;;;;5024743;28;20974;-46
2021/08/27 10:02:09;;;;;;;2.53;1.60;;;24.30;44.70;;;;;;5018607;28;20443;-47
2021/08/27 10:04:47;;;;;;;4.30;2.20;;;24.30;45.30;;;;;;5024811;28;20502;-46
2021/08/27 10:07:27;;;;;;;2.33;1.50;;;24.10;45.10;;;;;;5024398;28;20431;-49
2021/08/27 10:09:54;;;;;;;2.23;1.80;;;24.10;44.90;;;;;;5029317;28;20443;-47
2021/08/27 10:12:20;;;;;;;2.10;1.63;;;24.10;45.10;;;;;;5022794;28;20848;-50
2021/08/27 10:14:46;;;;;;;3.93;1.90;;;24.20;44.90;;;;;;5024818;28;20448;-46
2021/08/27 10:17:13;;;;;;;3.67;1.97;;;24.10;45.90;;;;;;5029061;28;20439;-49
2021/08/27 10:19:39;;;;;;;2.77;1.63;;;24.20;45.50;;;;;;5032865;28;20487;-50
2021/08/27 10:22:05;;;;;;;5.07;1.77;;;24.30;45.30;;;;;;5022821;28;20506;-49
2021/08/27 10:24:32;;;;;;;2.77;1.83;;;24.40;45.20;;;;;;5027492;28;20193;-46
2021/08/27 10:26:59;;;;;;;2.80;1.60;;;24.40;44.50;;;;;;5024671;28;20801;-47
2021/08/27 10:29:25;;;;;;;3.90;2.10;;;24.40;44.60;;;;;;5025624;28;20445;-47
2021/08/27 10:31:52;;;;;;;2.90;1.73;;;24.30;44.00;;;;;;5021799;28;20964;-46
2021/08/27 10:34:38;;;;;;;2.50;1.50;;;24.40;44.20;;;;;;5026870;28;20834;-50
2021/08/27 10:37:04;;;;;;;4.13;1.77;;;24.30;43.50;;;;;;5022652;28;20832;-47
2021/08/27 10:39:45;;;;;;;1.80;1.70;;;24.50;44.60;;;;;;5020070;28;20479;-48
2021/08/27 10:42:50;;;;;;;2.33;1.50;;;24.70;41.80;;;;;;5028542;28;20205;-50
2021/08/27 10:45:37;;;;;;;2.60;1.67;;;24.80;42.20;;;;;;5021444;28;20515;-47
2021/08/27 10:48:17;;;;;;;2.30;1.77;;;24.90;43.00;;;;;;5016296;28;20531;-46
2021/08/27 10:50:47;;;;;;;2.90;1.73;;;24.90;42.20;;;;;;5029860;28;20456;-48
2021/08/27 10:53:31;;;;;;;2.13;1.67;;;24.80;42.20;;;;;;5024264;28;20432;-49
2021/08/27 10:56:09;;;;;;;4.73;2.40;;;24.80;41.70;;;;;;5021370;28;20558;-46
2021/08/27 10:58:52;;;;;;;2.43;1.70;;;24.70;41.00;;;;;;5026960;28;20840;-47
2021/08/27 11:01:34;;;;;;;4.70;2.03;;;24.70;41.00;;;;;;5025388;28;20815;-46
2021/08/27 11:04:24;;;;;;;4.20;2.37;;;24.70;41.60;;;;;;5013033;28;20449;-46
2021/08/27 11:06:54;;;;;;;2.53;2.33;;;24.80;42.40;;;;;;5025935;28;20460;-49
2021/08/27 11:09:27;;;;;;;2.50;1.97;;;24.70;42.20;;;;;;5025327;28;20451;-46
2021/08/27 11:12:16;;;;;;;5.27;2.00;;;24.60;42.40;;;;;;5017236;28;21093;-46
2021/08/27 11:14:43;;;;;;;5.13;2.00;;;24.60;43.00;;;;;;5027201;28;20953;-49
2021/08/27 11:17:10;;;;;;;2.50;2.20;;;24.60;42.90;;;;;;5035201;28;20440;-45
2021/08/27 11:19:37;;;;;;;2.73;2.53;;;24.60;43.40;;;;;;5032453;28;21330;-46
2021/08/27 11:22:12;;;;;;;3.47;2.50;;;24.20;43.90;;;;;;5028077;28;20875;-46
2021/08/27 11:24:38;;;;;;;5.10;3.17;;;24.10;44.20;;;;;;5023641;28;20440;-45
2021/08/27 11:27:06;;;;;;;3.80;2.83;;;23.70;44.30;;;;;;5020254;28;20463;-46
2021/08/27 11:29:41;;;;;;;3.20;2.90;;;23.60;44.30;;;;;;5025715;28;20428;-44
2021/08/27 11:32:16;;;;;;;3.40;3.10;;;23.60;44.50;;;;;;5029687;28;20529;-46
2021/08/27 11:35:05;;;;;;;4.23;2.93;;;23.40;45.00;;;;;;5018346;28;20458;-46
2021/08/27 11:37:34;;;;;;;2.63;2.43;;;23.30;45.60;;;;;;5018720;28;20800;-47
2021/08/27 11:40:01;;;;;;;5.33;2.70;;;23.30;45.90;;;;;;5017039;28;20846;-45
2021/08/27 11:42:27;;;;;;;4.80;2.53;;;23.40;45.70;;;;;;5021932;28;20444;-46
2021/08/27 11:45:08;;;;;;;8.63;3.30;;;23.50;45.70;;;;;;5023957;28;20867;-47
2021/08/27 11:47:46;;;;;;;3.23;2.30;;;23.50;45.80;;;;;;5025128;28;20490;-50
2021/08/27 11:50:21;;;;;;;6.63;2.80;;;23.30;45.60;;;;;;5027835;28;20436;-50
2021/08/27 11:52:52;;;;;;;4.60;2.30;;;23.20;45.40;;;;;;5017163;28;20467;-50
2021/08/27 11:55:18;;;;;;;3.20;2.90;;;23.10;45.60;;;;;;5028844;28;20555;-50
2021/08/27 11:57:51;;;;;;;4.73;2.70;;;23.30;45.80;;;;;;5023518;28;20436;-49
2021/08/27 12:00:37;;;;;;;2.63;2.43;;;23.50;45.40;;;;;;5020560;28;20488;-46
2021/08/27 12:03:04;;;;;;;2.90;2.40;;;23.40;45.20;;;;;;5017165;28;20448;-47
2021/08/27 12:05:31;;;;;;;6.77;3.43;;;23.50;45.50;;;;;;5022131;28;20439;-50
2021/08/27 12:08:02;;;;;;;5.70;3.70;;;23.60;47.20;;;;;;5024106;28;20808;-47
2021/08/27 12:10:38;;;;;;;4.17;3.40;;;23.70;49.10;;;;;;5028435;28;20444;-45
2021/08/27 12:13:06;;;;;;;3.50;3.20;;;23.70;49.80;;;;;;5027184;28;20448;-48
2021/08/27 12:15:34;;;;;;;7.50;3.83;;;23.70;50.30;;;;;;5019088;28;20436;-49
2021/08/27 12:18:05;;;;;;;5.40;3.97;;;23.70;50.50;;;;;;5024415;28;20555;-45
2021/08/27 12:20:37;;;;;;;5.13;4.73;;;23.60;51.50;;;;;;5028465;28;20482;-45
2021/08/27 12:23:09;;;;;;;4.83;3.67;;;23.50;51.20;;;;;;5025838;28;20468;-47
2021/08/27 12:25:42;;;;;;;3.03;2.73;;;23.20;51.10;;;;;;5015823;28;20593;-48
2021/08/27 12:28:12;;;;;;;5.20;2.90;;;23.10;51.70;;;;;;5021196;28;20513;-46
2021/08/27 12:30:53;;;;;;;3.10;2.87;;;23.00;51.90;;;;;;5019180;28;20428;-46
2021/08/27 12:33:19;;;;;;;5.00;2.73;;;23.10;51.50;;;;;;5012866;28;20437;-47
2021/08/27 12:35:47;;;;;;;3.60;2.70;;;23.20;51.40;;;;;;5017367;28;20444;-48
2021/08/27 12:38:17;;;;;;;4.00;3.07;;;23.20;50.80;;;;;;5028733;28;20454;-47
2021/08/27 12:40:43;;;;;;;4.67;3.00;;;23.10;50.70;;;;;;5025939;28;20575;-46
2021/08/27 12:43:12;;;;;;;8.20;3.30;;;23.20;51.30;;;;;;5019130;28;20570;-50
2021/08/27 12:45:50;;;;;;;3.73;3.20;;;23.30;51.50;;;;;;5023164;28;20436;-47
2021/08/27 12:48:21;;;;;;;3.40;2.80;;;23.40;51.80;;;;;;5025457;28;20553;-49
2021/08/27 12:51:01;;;;;;;4.80;2.53;;;23.40;51.60;;;;;;5023475;28;20813;-47
2021/08/27 12:53:31;;;;;;;3.87;3.17;;;23.50;50.60;;;;;;5015423;28;20516;-50
2021/08/27 12:56:07;;;;;;;3.07;2.77;;;23.50;49.30;;;;;;5027136;28;20506;-46